createdAt,value
2022-08-05T00:00:17.197Z,101532.25
2022-08-05T00:02:50.785Z,101542.47
2022-08-05T00:06:01.876Z,101548.28
2022-08-05T00:08:32.815Z,101527.91
2022-08-05T00:10:53.259Z,101522.06
2022-08-05T00:13:19.964Z,101525.44
2022-08-05T00:15:56.309Z,101530.97
2022-08-05T00:18:24.732Z,101526.94
2022-08-05T00:20:52.847Z,101527.41
2022-08-05T00:23:44.276Z,101533.84
2022-08-05T00:26:07.052Z,101529.97
2022-08-05T00:28:34.007Z,101542.44
2022-08-05T00:31:02.760Z,101539.50
2022-08-05T00:34:54.423Z,101542.44
2022-08-05T00:37:12.424Z,101544.06
2022-08-05T00:39:04.225Z,101545.28
2022-08-05T00:41:51.408Z,101531.13
2022-08-05T00:44:18.877Z,101538.66
2022-08-05T00:46:47.361Z,101534.78
2022-08-05T00:49:20.479Z,101538.88
2022-08-05T00:51:52.013Z,101529.13
2022-08-05T00:54:19.334Z,101520.88
2022-08-05T00:56:51.519Z,101526.75
2022-08-05T00:59:18.434Z,101534.88
2022-08-05T01:01:48.392Z,101542.75
2022-08-05T01:04:15.921Z,101555.47
2022-08-05T01:06:48.956Z,101543.81
2022-08-05T01:09:20.000Z,101540.91
2022-08-05T01:11:49.454Z,101535.91
2022-08-05T01:14:28.001Z,101536.25
2022-08-05T01:17:12.088Z,101542.13
2022-08-05T01:20:00.755Z,101504.75
2022-08-05T01:22:41.847Z,101532.91
2022-08-05T01:25:41.124Z,101546.78
2022-08-05T01:28:27.552Z,101536.75
2022-08-05T01:31:09.870Z,101557.00
2022-08-05T01:33:53.466Z,101553.28
2022-08-05T01:36:27.912Z,101562.19
2022-08-05T01:38:55.484Z,101567.47
2022-08-05T01:41:25.763Z,101580.03
2022-08-05T01:43:53.708Z,101581.69
2022-08-05T01:46:41.215Z,101578.75
2022-08-05T01:49:23.646Z,101582.66
2022-08-05T01:51:54.793Z,101576.19
2022-08-05T01:54:27.112Z,101578.03
2022-08-05T01:58:18.882Z,101564.97
2022-08-05T01:59:45.397Z,101564.47
2022-08-05T02:02:15.802Z,101574.34
2022-08-05T02:04:46.281Z,101572.28
2022-08-05T02:07:21.830Z,101572.38
2022-08-05T02:09:50.076Z,101577.88
2022-08-05T02:12:23.325Z,101575.16
2022-08-05T02:15:12.226Z,101573.66
2022-08-05T02:18:31.307Z,101571.75
2022-08-05T02:20:49.731Z,101561.03
2022-08-05T02:23:22.469Z,101560.44
2022-08-05T02:25:50.887Z,101558.19
2022-08-05T02:28:28.852Z,101547.41
2022-08-05T02:31:00.315Z,101550.50
2022-08-05T02:33:38.240Z,101547.81
2022-08-05T02:36:09.297Z,101550.13
2022-08-05T02:38:37.254Z,101541.88
2022-08-05T02:41:06.419Z,101544.78
2022-08-05T02:44:06.230Z,101541.94
2022-08-05T02:46:29.908Z,101550.50
2022-08-05T02:48:57.708Z,101538.25
2022-08-05T02:51:28.213Z,101542.25
2022-08-05T02:54:36.223Z,101545.00
2022-08-05T02:57:01.919Z,101541.69
2022-08-05T02:59:29.963Z,101531.31
2022-08-05T03:02:17.324Z,101539.16
2022-08-05T03:04:45.493Z,101539.16
2022-08-05T03:07:21.443Z,101526.59
2022-08-05T03:10:00.016Z,101536.53
2022-08-05T03:12:37.081Z,101540.88
2022-08-05T03:15:09.236Z,101546.28
2022-08-05T03:17:41.642Z,101551.06
2022-08-05T03:20:10.236Z,101549.88
2022-08-05T03:22:36.958Z,101551.97
2022-08-05T03:25:34.054Z,101553.22
2022-08-05T03:27:59.856Z,101561.09
2022-08-05T03:30:34.208Z,101563.81
2022-08-05T03:33:03.745Z,101538.22
2022-08-05T03:35:33.621Z,101561.38
2022-08-05T03:38:02.636Z,101561.00
2022-08-05T03:40:32.119Z,101573.47
2022-08-05T03:43:01.379Z,101575.56
2022-08-05T03:45:57.151Z,101567.69
2022-08-05T03:48:28.962Z,101568.31
2022-08-05T03:52:36.467Z,101569.84
2022-08-05T03:55:34.311Z,101555.94
2022-08-05T03:56:58.990Z,101558.25
2022-08-05T03:59:47.663Z,101555.84
2022-08-05T04:02:38.860Z,101565.78
2022-08-05T04:05:12.873Z,101567.88
2022-08-05T04:07:57.075Z,101567.94
2022-08-05T04:10:27.818Z,101564.66
2022-08-05T04:12:55.316Z,101570.50
2022-08-05T04:15:24.481Z,101565.50
2022-08-05T04:17:56.308Z,101567.38
2022-08-05T04:20:24.349Z,101557.84
2022-08-05T04:22:50.771Z,101555.97
2022-08-05T04:25:17.396Z,101558.50
2022-08-05T04:27:57.192Z,101552.66
2022-08-05T04:30:24.124Z,101562.66
2022-08-05T04:32:53.146Z,101563.25
2022-08-05T04:35:20.021Z,101556.69
2022-08-05T04:38:02.680Z,101560.66
2022-08-05T04:40:37.255Z,101557.97
2022-08-05T04:43:16.501Z,101559.22
2022-08-05T04:45:48.155Z,101552.53
2022-08-05T04:48:18.713Z,101551.50
2022-08-05T04:51:01.989Z,101550.09
2022-08-05T04:53:33.535Z,101544.53
2022-08-05T04:56:33.807Z,101552.00
2022-08-05T04:58:48.256Z,101553.69
2022-08-05T05:01:14.689Z,101552.34
2022-08-05T05:04:00.233Z,101552.13
2022-08-05T05:06:36.637Z,101553.59
2022-08-05T05:09:13.255Z,101564.16
2022-08-05T05:11:48.552Z,101563.91
2022-08-05T05:14:27.839Z,101562.03
2022-08-05T05:17:00.456Z,101574.63
2022-08-05T05:19:37.301Z,101573.78
2022-08-05T05:22:24.137Z,101570.63
2022-08-05T05:24:57.392Z,101566.88
2022-08-05T05:27:45.221Z,101570.81
2022-08-05T05:30:29.456Z,101572.97
2022-08-05T05:33:01.036Z,101573.72
2022-08-05T05:35:37.647Z,101584.28
2022-08-05T05:38:09.096Z,101579.25
2022-08-05T05:40:42.481Z,101571.75
2022-08-05T05:43:13.102Z,101575.00
2022-08-05T05:45:48.307Z,101584.69
2022-08-05T05:48:16.176Z,101590.25
2022-08-05T05:50:44.336Z,101592.06
2022-08-05T05:53:22.395Z,101598.91
2022-08-05T05:55:52.345Z,101594.28
2022-08-05T05:58:31.441Z,101596.91
2022-08-05T06:01:12.320Z,101596.03
2022-08-05T06:04:00.924Z,101594.69
2022-08-05T06:06:30.975Z,101591.06
2022-08-05T06:08:58.333Z,101598.44
2022-08-05T06:11:24.780Z,101595.44
2022-08-05T06:13:54.008Z,101593.47
2022-08-05T06:16:30.436Z,101591.50
2022-08-05T06:19:01.070Z,101600.13
2022-08-05T06:21:36.602Z,101605.00
2022-08-05T06:24:09.993Z,101599.25
2022-08-05T06:26:38.116Z,101594.13
2022-08-05T06:29:24.979Z,101593.09
2022-08-05T06:31:52.375Z,101592.69
2022-08-05T06:34:20.151Z,101590.13
2022-08-05T06:36:56.983Z,101595.78
2022-08-05T06:39:26.872Z,101589.66
2022-08-05T06:41:54.072Z,101597.47
2022-08-05T06:44:22.023Z,101589.91
2022-08-05T06:46:50.760Z,101594.75
2022-08-05T06:49:17.627Z,101584.75
2022-08-05T06:51:45.613Z,101585.44
2022-08-05T06:54:18.264Z,101599.78
2022-08-05T06:56:54.641Z,101597.69
2022-08-05T06:59:38.517Z,101600.28
2022-08-05T07:02:08.963Z,101603.94
2022-08-05T07:04:35.651Z,101598.75
2022-08-05T07:07:03.190Z,101604.41
2022-08-05T07:09:37.331Z,101609.25
2022-08-05T07:12:07.571Z,101615.72
2022-08-05T07:14:54.099Z,101619.38
2022-08-05T07:18:01.236Z,101628.31
2022-08-05T07:20:32.241Z,101629.72
2022-08-05T07:22:54.376Z,101634.91
2022-08-05T07:25:54.165Z,101630.03
2022-08-05T07:28:08.343Z,101640.59
2022-08-05T07:30:39.961Z,101636.72
2022-08-05T07:33:10.627Z,101633.13
2022-08-05T07:36:01.876Z,101639.53
2022-08-05T07:38:34.260Z,101649.53
2022-08-05T07:42:08.805Z,101647.81
2022-08-05T07:43:58.094Z,101647.81
2022-08-05T07:46:26.888Z,101653.25
2022-08-05T07:49:02.070Z,101659.72
2022-08-05T07:51:37.207Z,101667.63
2022-08-05T07:54:05.555Z,101659.28
2022-08-05T07:57:00.586Z,101663.91
2022-08-05T07:59:22.041Z,101665.38
2022-08-05T08:01:58.049Z,101666.63
2022-08-05T08:04:37.272Z,101675.59
2022-08-05T08:07:05.528Z,101675.22
2022-08-05T08:09:33.716Z,101673.34
2022-08-05T08:12:05.605Z,101677.31
2022-08-05T08:14:37.832Z,101684.19
2022-08-05T08:17:10.693Z,101696.88
2022-08-05T08:20:21.420Z,101692.75
2022-08-05T08:22:30.216Z,101688.38
2022-08-05T08:25:02.861Z,101698.78
2022-08-05T08:27:35.606Z,101693.81
2022-08-05T08:30:29.449Z,101697.34
2022-08-05T08:33:02.686Z,101699.59
2022-08-05T08:35:34.751Z,101704.53
2022-08-05T08:38:01.293Z,101711.84
2022-08-05T08:40:27.850Z,101708.91
2022-08-05T08:42:54.723Z,101714.09
2022-08-05T08:45:27.028Z,101711.63
2022-08-05T08:48:07.415Z,101714.31
2022-08-05T08:51:22.405Z,101720.34
2022-08-05T08:53:37.026Z,101696.00
2022-08-05T08:56:06.147Z,101724.47
2022-08-05T08:58:37.491Z,101726.97
2022-08-05T09:01:16.694Z,101728.19
2022-08-05T09:03:55.402Z,101734.88
2022-08-05T09:06:29.226Z,101728.41
2022-08-05T09:09:00.477Z,101740.72
2022-08-05T09:11:53.770Z,101740.88
2022-08-05T09:14:58.131Z,101750.69
2022-08-05T09:17:03.859Z,101752.78
2022-08-05T09:19:36.785Z,101763.84
2022-08-05T09:22:31.287Z,101764.41
2022-08-05T09:25:14.006Z,101763.75
2022-08-05T09:28:04.774Z,101762.69
2022-08-05T09:30:34.422Z,101767.88
2022-08-05T09:33:04.748Z,101777.44
2022-08-05T09:35:31.729Z,101779.06
2022-08-05T09:38:12.656Z,101771.78
2022-08-05T09:40:52.240Z,101788.41
2022-08-05T09:43:28.048Z,101757.59
2022-08-05T09:46:28.431Z,101770.00
2022-08-05T09:49:07.887Z,101787.19
2022-08-05T09:51:49.669Z,101789.09
2022-08-05T09:54:28.931Z,101794.28
2022-08-05T09:56:57.649Z,101797.94
2022-08-05T09:59:28.005Z,101803.13
2022-08-05T10:01:57.770Z,101799.53
2022-08-05T10:04:35.856Z,101797.03
2022-08-05T10:07:06.080Z,101797.50
2022-08-05T10:10:13.971Z,101802.31
2022-08-05T10:12:49.699Z,101806.31
2022-08-05T10:15:34.117Z,101810.91
2022-08-05T10:20:55.435Z,101806.44
2022-08-05T10:23:55.724Z,101806.59
2022-08-05T10:26:14.353Z,101814.84
2022-08-05T10:28:42.666Z,101818.41
2022-08-05T10:32:53.217Z,101825.59
2022-08-05T10:33:58.086Z,101814.63
2022-08-05T10:36:25.856Z,101815.91
2022-08-05T10:39:00.672Z,101826.97
2022-08-05T10:41:46.981Z,101813.38
2022-08-05T10:44:18.248Z,101832.03
2022-08-05T10:46:46.448Z,101831.00
2022-08-05T10:49:18.402Z,101831.16
2022-08-05T10:52:00.168Z,101812.78
2022-08-05T10:55:02.966Z,101829.97
2022-08-05T10:57:32.003Z,101843.25
2022-08-05T11:00:20.177Z,101834.75
2022-08-05T11:03:22.991Z,101853.41
2022-08-05T11:06:16.115Z,101859.44
2022-08-05T11:09:32.056Z,101859.00
2022-08-05T11:12:26.432Z,101842.13
2022-08-05T11:15:21.286Z,101867.84
2022-08-05T11:18:00.521Z,101869.50
2022-08-05T11:20:45.996Z,101876.81
2022-08-05T11:24:05.129Z,101888.00
2022-08-05T11:26:32.426Z,101877.97
2022-08-05T11:29:13.498Z,101881.41
2022-08-05T11:31:58.744Z,101880.81
2022-08-05T11:34:51.903Z,101891.81
2022-08-05T11:38:36.742Z,101889.81
2022-08-05T11:41:34.527Z,101891.25
2022-08-05T11:44:04.622Z,101880.66
2022-08-05T11:47:09.522Z,101888.06
2022-08-05T11:49:35.103Z,101885.59
2022-08-05T11:52:01.929Z,101895.53
2022-08-05T11:54:40.392Z,101896.19
2022-08-05T11:57:25.217Z,101901.38
2022-08-05T11:59:52.834Z,101899.41
2022-08-05T12:02:31.181Z,101903.78
2022-08-05T12:05:01.000Z,101906.50
2022-08-05T12:08:08.297Z,101907.06
2022-08-05T12:10:25.259Z,101921.47
2022-08-05T12:13:15.833Z,101916.94
2022-08-05T12:15:45.120Z,101917.53
2022-08-05T12:18:20.489Z,101918.88
2022-08-05T12:20:47.284Z,101921.56
2022-08-05T12:23:14.314Z,101921.47
2022-08-05T12:25:56.743Z,101929.97
2022-08-05T12:28:35.355Z,101939.97
2022-08-05T12:31:04.276Z,101931.22
2022-08-05T12:33:37.072Z,101944.34
2022-08-05T12:36:08.639Z,101935.88
2022-08-05T12:38:40.142Z,101940.38
2022-08-05T12:41:13.492Z,101953.34
2022-08-05T12:43:56.343Z,101953.69
2022-08-05T12:46:29.331Z,101944.59
2022-08-05T12:49:13.488Z,101936.16
2022-08-05T12:52:13.675Z,101949.06
2022-08-05T12:54:49.648Z,101964.66
2022-08-05T12:57:17.526Z,101957.81
2022-08-05T13:00:08.466Z,101957.13
2022-08-05T13:02:36.206Z,101969.28
2022-08-05T13:05:06.348Z,101968.47
2022-08-05T13:07:59.042Z,101976.41
2022-08-05T13:10:20.489Z,101967.41
2022-08-05T13:12:51.233Z,101984.28
2022-08-05T13:15:41.428Z,101997.59
2022-08-05T13:18:19.391Z,102006.56
2022-08-05T13:20:46.427Z,101997.84
2022-08-05T13:23:12.893Z,102011.78
2022-08-05T13:25:52.763Z,102008.72
2022-08-05T13:28:27.083Z,102006.13
2022-08-05T13:30:53.757Z,102012.72
2022-08-05T13:34:22.241Z,102012.16
2022-08-05T13:36:09.190Z,102020.81
2022-08-05T13:38:42.416Z,102026.84
2022-08-05T13:41:10.188Z,102021.91
2022-08-05T13:43:43.452Z,102026.13
2022-08-05T13:46:12.850Z,102033.09
2022-08-05T13:48:57.963Z,102036.28
2022-08-05T13:51:29.551Z,102016.97
2022-08-05T13:54:12.028Z,102042.91
2022-08-05T13:56:39.969Z,102054.63
2022-08-05T13:59:20.363Z,102055.72
2022-08-05T14:01:56.759Z,102054.16
2022-08-05T14:04:50.187Z,102053.06
2022-08-05T14:07:55.487Z,102047.38
2022-08-05T14:10:19.066Z,102054.03
2022-08-05T14:12:54.730Z,102061.03
2022-08-05T14:16:07.546Z,102059.09
2022-08-05T14:18:15.172Z,102064.78
2022-08-05T14:20:47.296Z,102067.50
2022-08-05T14:23:23.380Z,102062.56
2022-08-05T14:25:54.213Z,102070.41
2022-08-05T14:28:26.947Z,102067.00
2022-08-05T14:30:54.525Z,102068.75
2022-08-05T14:33:22.486Z,102068.94
2022-08-05T14:35:51.697Z,102071.94
2022-08-05T14:38:32.015Z,102072.66
2022-08-05T14:41:00.232Z,102077.72
2022-08-05T14:44:02.575Z,102083.75
2022-08-05T14:46:13.139Z,102097.78
2022-08-05T14:48:39.629Z,102080.84
2022-08-05T14:51:06.139Z,102088.72
2022-08-05T14:53:35.093Z,102088.84
2022-08-05T14:56:11.470Z,102090.34
2022-08-05T14:58:39.056Z,102091.63
2022-08-05T15:01:16.188Z,102090.03
2022-08-05T15:03:43.300Z,102093.56
2022-08-05T15:06:14.790Z,102088.13
2022-08-05T15:08:59.705Z,102089.53
2022-08-05T15:11:51.489Z,102092.31
2022-08-05T15:14:35.637Z,102091.56
2022-08-05T15:17:09.822Z,102101.53
2022-08-05T15:19:53.583Z,102101.63
2022-08-05T15:22:21.711Z,102105.28
2022-08-05T15:24:54.169Z,102106.16
2022-08-05T15:27:20.758Z,102106.28
2022-08-05T15:29:47.179Z,102106.88
2022-08-05T15:32:16.425Z,102116.59
2022-08-05T15:34:43.165Z,102107.41
2022-08-05T15:37:15.540Z,102111.78
2022-08-05T15:40:58.968Z,102113.31
2022-08-05T15:42:53.549Z,102116.44
2022-08-05T15:45:38.616Z,102111.53
2022-08-05T15:48:05.621Z,102117.91
2022-08-05T15:50:33.432Z,102118.81
2022-08-05T15:53:04.180Z,102116.91
2022-08-05T15:56:02.818Z,102118.81
2022-08-05T15:58:19.076Z,102118.75
2022-08-05T16:01:03.343Z,102126.88
2022-08-05T16:03:33.846Z,102124.00
2022-08-05T16:06:00.554Z,102129.13
2022-08-05T16:08:30.611Z,102136.41
2022-08-05T16:10:57.803Z,102146.25
2022-08-05T16:13:24.200Z,102144.22
2022-08-05T16:16:01.033Z,102151.09
2022-08-05T16:18:28.034Z,102156.19
2022-08-05T16:20:55.721Z,102154.31
2022-08-05T16:23:22.179Z,102158.03
2022-08-05T16:25:49.808Z,102153.25
2022-08-05T16:28:22.236Z,102151.53
2022-08-05T16:30:52.061Z,102150.94
2022-08-05T16:33:19.330Z,102150.53
2022-08-05T16:35:49.916Z,102156.06
2022-08-05T16:38:25.716Z,102162.22
2022-08-05T16:41:00.362Z,102150.69
2022-08-05T16:43:32.582Z,102140.50
2022-08-05T16:46:06.636Z,102161.38
2022-08-05T16:48:39.313Z,102162.84
2022-08-05T16:51:09.792Z,102168.47
2022-08-05T16:54:04.248Z,102169.19
2022-08-05T16:56:30.331Z,102164.69
2022-08-05T16:58:58.161Z,102170.97
2022-08-05T17:01:24.894Z,102170.56
2022-08-05T17:03:51.993Z,102172.06
2022-08-05T17:06:18.915Z,102179.31
2022-08-05T17:08:53.095Z,102180.94
2022-08-05T17:11:25.702Z,102175.03
2022-08-05T17:14:00.685Z,102175.53
2022-08-05T17:16:36.439Z,102175.78
2022-08-05T17:19:07.445Z,102176.44
2022-08-05T17:21:36.859Z,102173.28
2022-08-05T17:24:18.520Z,102168.13
2022-08-05T17:26:47.196Z,102180.03
2022-08-05T17:29:14.276Z,102179.31
2022-08-05T17:31:57.310Z,102177.28
2022-08-05T17:34:29.703Z,102187.13
2022-08-05T17:36:59.000Z,102179.47
2022-08-05T17:39:33.389Z,102183.91
2022-08-05T17:42:18.279Z,102182.47
2022-08-05T17:44:50.245Z,102174.38
2022-08-05T17:47:22.310Z,102181.88
2022-08-05T17:50:00.270Z,102189.19
2022-08-05T17:52:32.225Z,102188.16
2022-08-05T17:54:59.347Z,102193.97
2022-08-05T17:57:25.891Z,102192.28
2022-08-05T18:00:03.697Z,102195.25
2022-08-05T18:02:31.595Z,102187.56
2022-08-05T18:04:58.602Z,102197.97
2022-08-05T18:07:25.339Z,102207.72
2022-08-05T18:10:09.772Z,102205.25
2022-08-05T18:12:36.988Z,102207.31
2022-08-05T18:15:04.896Z,102211.50
2022-08-05T18:18:00.751Z,102205.69
2022-08-05T18:20:19.537Z,102211.31
2022-08-05T18:22:57.552Z,102211.47
2022-08-05T18:25:25.011Z,102222.69
2022-08-05T18:27:52.285Z,102224.97
2022-08-05T18:30:19.597Z,102228.72
2022-08-05T18:32:53.103Z,102226.25
2022-08-05T18:35:20.986Z,102226.25
2022-08-05T18:38:07.680Z,102227.06
2022-08-05T18:41:53.311Z,102242.66
2022-08-05T18:43:21.519Z,102243.06
2022-08-05T18:45:49.536Z,102248.25
2022-08-05T18:48:31.543Z,102250.09
2022-08-05T18:52:04.970Z,102250.31
2022-08-05T18:54:05.775Z,102253.84
2022-08-05T18:56:32.766Z,102256.13
2022-08-05T18:59:01.124Z,102251.94
2022-08-05T19:01:47.780Z,102261.28
2022-08-05T19:04:24.141Z,102262.75
2022-08-05T19:06:51.020Z,102263.56
2022-08-05T19:09:17.464Z,102259.81
2022-08-05T19:12:00.062Z,102261.28
2022-08-05T19:14:37.444Z,102266.06
2022-08-05T19:17:14.358Z,102263.13
2022-08-05T19:19:46.474Z,102266.22
2022-08-05T19:22:13.709Z,102262.66
2022-08-05T19:24:54.309Z,102275.53
2022-08-05T19:27:23.567Z,102265.94
2022-08-05T19:29:50.141Z,102273.22
2022-08-05T19:32:16.535Z,102270.72
2022-08-05T19:34:55.128Z,102275.25
2022-08-05T19:37:29.968Z,102279.34
2022-08-05T19:40:10.592Z,102283.03
2022-08-05T19:42:38.808Z,102295.47
2022-08-05T19:45:07.099Z,102288.78
2022-08-05T19:47:37.693Z,102288.97
2022-08-05T19:50:06.113Z,102290.22
2022-08-05T19:52:34.466Z,102303.06
2022-08-05T19:55:06.870Z,102312.63
2022-08-05T19:57:46.399Z,102309.47
2022-08-05T20:00:21.389Z,102310.94
2022-08-05T20:02:47.872Z,102322.13
2022-08-05T20:05:24.156Z,102315.78
2022-08-05T20:07:55.000Z,102335.06
2022-08-05T20:10:25.142Z,102336.97
2022-08-05T20:12:51.883Z,102338.16
2022-08-05T20:15:48.503Z,102342.91
2022-08-05T20:18:09.680Z,102346.25
2022-08-05T20:20:46.936Z,102347.50
2022-08-05T20:23:13.960Z,102344.22
2022-08-05T20:25:41.661Z,102350.66
2022-08-05T20:28:14.519Z,102350.44
2022-08-05T20:30:41.397Z,102358.09
2022-08-05T20:33:08.662Z,102358.47
2022-08-05T20:35:40.445Z,102365.53
2022-08-05T20:38:20.019Z,102369.28
2022-08-05T20:40:54.058Z,102367.56
2022-08-05T20:43:33.124Z,102365.72
2022-08-05T20:46:10.139Z,102377.72
2022-08-05T20:48:39.104Z,102369.22
2022-08-05T20:51:08.660Z,102371.06
2022-08-05T20:53:36.884Z,102370.63
2022-08-05T20:56:08.637Z,102371.81
2022-08-05T20:58:35.717Z,102370.56
2022-08-05T21:01:03.731Z,102369.06
2022-08-05T21:03:34.644Z,102372.59
2022-08-05T21:06:01.772Z,102374.66
2022-08-05T21:08:35.881Z,102375.03
2022-08-05T21:11:12.755Z,102372.34
2022-08-05T21:13:48.130Z,102374.00
2022-08-05T21:16:29.429Z,102374.00
2022-08-05T21:18:56.680Z,102378.59
2022-08-05T21:21:26.610Z,102376.91
2022-08-05T21:24:07.281Z,102378.31
2022-08-05T21:26:33.922Z,102380.19
2022-08-05T21:29:03.559Z,102383.53
2022-08-05T21:31:41.176Z,102389.56
2022-08-05T21:34:08.280Z,102384.97
2022-08-05T21:36:36.853Z,102387.41
2022-08-05T21:39:03.597Z,102381.78
2022-08-05T21:41:33.783Z,102388.00
2022-08-05T21:44:04.495Z,102389.84
2022-08-05T21:46:34.938Z,102394.13
2022-08-05T21:49:04.623Z,102397.41
2022-08-05T21:52:22.218Z,102394.91
2022-08-05T21:54:27.959Z,102392.25
2022-08-05T21:57:15.477Z,102398.28
2022-08-05T22:00:02.009Z,102392.66
2022-08-05T22:02:31.006Z,102396.75
2022-08-05T22:04:58.562Z,102405.25
2022-08-05T22:07:39.432Z,102406.28
2022-08-05T22:10:12.081Z,102406.19
2022-08-05T22:12:40.219Z,102405.06
2022-08-05T22:15:16.410Z,102392.00
2022-08-05T22:17:48.802Z,102404.50
2022-08-05T22:20:26.418Z,102406.72
2022-08-05T22:23:16.988Z,102409.50
2022-08-05T22:26:10.429Z,102412.19
2022-08-05T22:28:38.567Z,102413.94
2022-08-05T22:31:05.864Z,102416.81
2022-08-05T22:33:55.440Z,102425.25
2022-08-05T22:36:19.143Z,102421.78
2022-08-05T22:38:50.447Z,102425.34
2022-08-05T22:42:05.631Z,102424.13
2022-08-05T22:44:08.161Z,102427.28
2022-08-05T22:46:39.834Z,102431.38
2022-08-05T22:49:23.203Z,102428.56
2022-08-05T22:52:05.772Z,102433.69
2022-08-05T22:54:33.469Z,102430.75
2022-08-05T22:56:59.993Z,102432.41
2022-08-05T22:59:46.060Z,102436.50
2022-08-05T23:02:13.745Z,102445.84
2022-08-05T23:04:43.243Z,102446.03
2022-08-05T23:07:18.164Z,102452.91
2022-08-05T23:09:53.392Z,102456.59
2022-08-05T23:12:28.920Z,102453.16
2022-08-05T23:14:58.745Z,102457.69
2022-08-05T23:17:34.803Z,102472.78
2022-08-05T23:20:17.653Z,102470.22
2022-08-05T23:22:48.355Z,102470.75
2022-08-05T23:25:52.713Z,102477.50
2022-08-05T23:28:06.946Z,102481.56
2022-08-05T23:30:40.301Z,102471.88
2022-08-05T23:33:19.069Z,102477.59
2022-08-05T23:35:50.238Z,102478.44
2022-08-05T23:38:16.931Z,102484.69
2022-08-05T23:40:49.722Z,102480.81
2022-08-05T23:43:25.700Z,102484.31
2022-08-05T23:46:20.117Z,102491.75
2022-08-05T23:49:00.390Z,102492.31
2022-08-05T23:51:52.385Z,102490.63
2022-08-05T23:54:26.004Z,102497.50
2022-08-05T23:56:56.002Z,102491.75
